| time (UTC) | temp C | wind direction | speed KPH | gust KPH | rain 1hr cm | rain 24hr cm | rain mn cm | humidity % | barometer mb |
| 20260905174517 | 33 | 284 | 6.4 | 19.3 | 0.00 | 0.46 | 0.10 | 58 | 1011.0 |
| 20260905173100 | 33 | 301 | 6.4 | 14.5 | 0.00 | 0.46 | 0.10 | 61 | 1010.9 |
| 20260905173000 | 33 | 264 | 9.7 | 14.5 | 0.00 | 0.46 | 0.10 | 62 | 1010.9 |
| 20260905171554 | 33 | 335 | 0.0 | 11.3 | 0.00 | 0.46 | 0.10 | 65 | 1010.9 |
| 20260905170139 | 32 | 316 | 6.4 | 12.9 | 0.00 | 0.46 | 0.10 | 65 | 1011.1 |
| 20260905164511 | 32 | 290 | 1.6 | 14.5 | 0.00 | 0.46 | 0.10 | 67 | 1011.2 |
| 20260905163002 | 32 | 340 | 4.8 | 16.1 | 0.00 | 0.46 | 0.10 | 68 | 1011.3 |
| 20260905161541 | 31 | 313 | 6.4 | 12.9 | 0.00 | 0.46 | 0.10 | 68 | 1011.3 |
| 20260905160142 | 31 | 316 | 3.2 | 8.0 | 0.00 | 0.46 | 0.10 | 70 | 1011.3 |
| 20260905154540 | 31 | 360 | 0.0 | 8.0 | 0.00 | 0.46 | 0.10 | 74 | 1011.3 |
| 20260905153022 | 30 | 22 | 3.2 | 6.4 | 0.00 | 0.46 | 0.10 | 78 | 1011.4 |
| 20260905151503 | 29 | 57 | 0.0 | 4.8 | 0.00 | 0.46 | 0.10 | 79 | 1011.5 |
| 20260905150141 | 29 | 55 | 0.0 | 4.8 | 0.00 | 0.46 | 0.10 | 80 | 1011.5 |
| 20260905144528 | 29 | 72 | 3.2 | 6.4 | 0.00 | 0.46 | 0.10 | 80 | 1011.4 |
| 20260905143027 | 29 | 46 | 0.0 | 3.2 | 0.00 | 0.46 | 0.10 | 79 | 1011.3 |
| 20260905141507 | 28 | 46 | 0.0 | 3.2 | 0.00 | 0.46 | 0.10 | 81 | 1011.4 |
| 20260905140026 | 28 | 46 | 1.6 | 4.8 | 0.00 | 0.46 | 0.10 | 85 | 1011.3 |
| 20260905134524 | 27 | 38 | 1.6 | 4.8 | 0.00 | 0.46 | 0.10 | 86 | 1011.2 |
| 20260905133008 | 27 | 30 | 0.0 | 3.2 | 0.00 | 0.46 | 0.10 | 87 | 1010.9 |
| 20260905131612 | 27 | 30 | 0.0 | 3.2 | 0.00 | 0.46 | 0.10 | 87 | 1010.7 |
| 20260905130010 | 27 | 30 | 1.6 | 6.4 | 0.00 | 0.46 | 0.10 | 88 | 1010.4 |
| 20260905124544 | 27 | 32 | 3.2 | 6.4 | 0.00 | 0.46 | 0.10 | 87 | 1010.1 |
| 20260905123017 | 27 | 19 | 1.6 | 8.0 | 0.00 | 0.46 | 0.10 | 87 | 1010.0 |
| 20260905121504 | 27 | 20 | 1.6 | 6.4 | 0.00 | 0.46 | 0.10 | 87 | 1010.1 |
| 20260905120148 | 27 | 347 | 1.6 | 6.4 | 0.00 | 0.46 | 0.10 | 88 | 1010.1 |
| 20260905114525 | 27 | 30 | 3.2 | 4.8 | 0.00 | 0.46 | 0.10 | 87 | 1010.3 |
| 20260905113006 | 27 | 26 | 1.6 | 6.4 | 0.00 | 0.46 | 0.10 | 87 | 1010.3 |
| 20260905111555 | 27 | 343 | 0.0 | 3.2 | 0.00 | 0.46 | 0.10 | 86 | 1010.4 |
| 20260905110135 | 27 | 343 | 3.2 | 4.8 | 0.00 | 0.46 | 0.10 | 86 | 1010.5 |
| 20260905104509 | 27 | 311 | 0.0 | 3.2 | 0.00 | 0.46 | 0.10 | 86 | 1010.7 |
| 20260905103006 | 27 | 311 | 0.0 | 1.6 | 0.00 | 0.46 | 0.10 | 86 | 1010.8 |
| 20260905101559 | 27 | 311 | 0.0 | 3.2 | 0.00 | 0.46 | 0.10 | 86 | 1011.0 |
| 20260905100155 | 27 | 311 | 0.0 | 3.2 | 0.00 | 0.46 | 0.10 | 86 | 1010.9 |
| 20260905094556 | 27 | 311 | 0.0 | 3.2 | 0.00 | 0.46 | 0.10 | 86 | 1010.8 |
| 20260905093053 | 27 | 310 | 0.0 | 3.2 | 0.00 | 0.46 | 0.10 | 86 | 1010.9 |
| 20260905091546 | 27 | 310 | 0.0 | 3.2 | 0.00 | 0.46 | 0.10 | 86 | 1010.9 |
| 20260905090002 | 27 | 310 | 1.6 | 4.8 | 0.00 | 0.46 | 0.10 | 86 | 1010.9 |
| 20260905084504 | 27 | 5 | 0.0 | 4.8 | 0.00 | 0.46 | 0.10 | 87 | 1011.0 |
| 20260905083001 | 27 | 355 | 4.8 | 9.7 | 0.00 | 0.46 | 0.10 | 89 | 1011.1 |
| 20260905081600 | 27 | 24 | 1.6 | 9.7 | 0.03 | 0.46 | 0.10 | 91 | 1011.2 |
| 20260905080138 | 27 | 333 | 1.6 | 8.0 | 0.08 | 0.46 | 0.10 | 91 | 1011.1 |
| 20260905074521 | 27 | 298 | 1.6 | 8.0 | 0.33 | 0.46 | 0.10 | 91 | 1011.1 |
| 20260905073024 | 27 | 321 | 1.6 | 9.7 | 0.43 | 0.46 | 0.10 | 89 | 1011.0 |
| 20260905071502 | 27 | 331 | 4.8 | 9.7 | 0.41 | 0.43 | 0.08 | 87 | 1010.7 |
| 20260905070019 | 27 | 316 | 3.2 | 8.0 | 0.33 | 0.38 | 0.03 | 88 | 1010.9 |
| 20260905064513 | 28 | 325 | 0.0 | 3.2 | 0.08 | 0.13 | 0.13 | 87 | 1011.3 |
| 20260905063015 | 28 | 321 | 1.6 | 8.0 | 0.00 | 0.05 | 0.05 | 86 | 1011.5 |
| 20260905061556 | 28 | 296 | 1.6 | 4.8 | 0.00 | 0.05 | 0.05 | 87 | 1011.6 |
| 20260905060142 | 27 | 263 | 4.8 | 11.3 | 0.00 | 0.05 | 0.05 | 87 | 1011.5 |
| 20260905054533 | 27 | 244 | 0.0 | 3.2 | 0.05 | 0.05 | 0.05 | 86 | 1011.2 |
| 20260905053004 | 27 | 244 | 0.0 | 3.2 | 0.05 | 0.05 | 0.05 | 86 | 1011.2 |
| 20260905051552 | 27 | 242 | 0.0 | 8.0 | 0.05 | 0.05 | 0.05 | 86 | 1011.2 |
| 20260905050146 | 26 | 231 | 1.6 | 11.3 | 0.05 | 0.05 | 0.05 | 88 | 1011.5 |
| 20260905044548 | 28 | 218 | 9.7 | 24.1 | 0.00 | 0.00 | 0.00 | 81 | 1011.7 |
| 20260905043047 | 28 | 228 | 12.9 | 27.4 | 0.00 | 0.00 | 0.00 | 79 | 1011.5 |
| 20260905041537 | 30 | 304 | 9.7 | 16.1 | 0.00 | 0.00 | 0.00 | 79 | 1011.5 |
| 20260905040007 | 30 | 338 | 6.4 | 14.5 | 0.00 | 0.00 | 0.00 | 77 | 1011.0 |
| 20260905034556 | 31 | 22 | 4.8 | 12.9 | 0.00 | 0.00 | 0.00 | 78 | 1011.1 |
| 20260905033054 | 31 | 311 | 1.6 | 17.7 | 0.00 | 0.00 | 0.00 | 78 | 1011.0 |
| 20260905031558 | 31 | 271 | 11.3 | 19.3 | 0.00 | 0.00 | 0.00 | 77 | 1010.7 |
| 20260905030022 | 32 | 306 | 8.0 | 19.3 | 0.00 | 0.00 | 0.00 | 76 | 1010.5 |
| 20260905024508 | 32 | 290 | 3.2 | 19.3 | 0.00 | 0.00 | 0.00 | 75 | 1010.4 |
| 20260905023049 | 31 | 286 | 8.0 | 17.7 | 0.00 | 0.00 | 0.00 | 75 | 1010.3 |
| 20260905021538 | 31 | 275 | 6.4 | 16.1 | 0.00 | 0.00 | 0.00 | 75 | 1010.4 |
| 20260905020135 | 31 | 292 | 6.4 | 17.7 | 0.00 | 0.00 | 0.00 | 75 | 1010.2 |
| 20260905014518 | 32 | 284 | 11.3 | 19.3 | 0.00 | 0.00 | 0.00 | 74 | 1010.0 |
| 20260905013011 | 32 | 310 | 8.0 | 16.1 | 0.00 | 0.00 | 0.00 | 74 | 1010.0 |
| 20260905011554 | 32 | 267 | 8.0 | 19.3 | 0.00 | 0.00 | 0.00 | 74 | 1010.0 |
| 20260905010145 | 32 | 286 | 6.4 | 20.9 | 0.00 | 0.00 | 0.00 | 73 | 1010.0 |
| 20260905004507 | 32 | 258 | 8.0 | 16.1 | 0.00 | 0.00 | 0.00 | 73 | 1009.6 |
| 20260905003001 | 32 | 240 | 11.3 | 20.9 | 0.00 | 0.00 | 0.00 | 71 | 1009.6 |
| 20260905001555 | 32 | 269 | 12.9 | 20.9 | 0.00 | 0.00 | 0.00 | 71 | 1009.3 |
| 20260905000032 | 32 | 262 | 9.7 | 19.3 | 0.00 | 0.00 | 0.00 | 70 | 1009.0 |
| 20260904234504 | 32 | 280 | 12.9 | 24.1 | 0.00 | 0.00 | 0.00 | 69 | 1008.8 |
| 20260904233001 | 33 | 242 | 11.3 | 19.3 | 0.00 | 0.00 | 0.00 | 68 | 1008.9 |
| 20260904231554 | 33 | 280 | 8.0 | 22.5 | 0.00 | 0.00 | 0.00 | 68 | 1008.7 |
| 20260904230138 | 33 | 295 | 9.7 | 19.3 | 0.00 | 0.00 | 0.00 | 63 | 1008.7 |
| 20260904224529 | 33 | 261 | 12.9 | 22.5 | 0.00 | 0.00 | 0.00 | 67 | 1008.6 |
| 20260904223014 | 33 | 252 | 11.3 | 19.3 | 0.00 | 0.00 | 0.00 | 68 | 1008.6 |
| 20260904221609 | 33 | 237 | 9.7 | 19.3 | 0.00 | 0.00 | 0.00 | 69 | 1008.6 |
| 20260904220005 | 33 | 271 | 12.9 | 17.7 | 0.00 | 0.00 | 0.00 | 69 | 1008.8 |
| 20260904214504 | 33 | 205 | 11.3 | 22.5 | 0.00 | 0.00 | 0.00 | 71 | 1008.9 |
| 20260904213052 | 33 | 265 | 8.0 | 22.5 | 0.00 | 0.00 | 0.00 | 70 | 1009.2 |
| 20260904211545 | 33 | 250 | 11.3 | 19.3 | 0.00 | 0.00 | 0.00 | 70 | 1009.1 |
| 20260904210138 | 33 | 250 | 9.7 | 20.9 | 0.00 | 0.00 | 0.00 | 71 | 1009.2 |
| 20260904204507 | 33 | 250 | 11.3 | 24.1 | 0.00 | 0.00 | 0.00 | 70 | 1009.3 |
| 20260904203059 | 33 | 230 | 14.5 | 24.1 | 0.00 | 0.00 | 0.00 | 71 | 1009.7 |
| 20260904201553 | 33 | 250 | 14.5 | 20.9 | 0.00 | 0.00 | 0.00 | 69 | 1009.9 |
| 20260904200144 | 33 | 252 | 8.0 | 17.7 | 0.00 | 0.00 | 0.00 | 69 | 1010.2 |
| 20260904194548 | 33 | 230 | 11.3 | 22.5 | 0.00 | 0.00 | 0.00 | 69 | 1010.5 |
| 20260904193032 | 33 | 233 | 12.9 | 19.3 | 0.00 | 0.00 | 0.00 | 70 | 1010.6 |
| 20260904191518 | 33 | 200 | 8.0 | 22.5 | 0.00 | 0.00 | 0.00 | 71 | 1010.8 |
| 20260904190150 | 33 | 215 | 6.4 | 19.3 | 0.00 | 0.00 | 0.00 | 73 | 1010.9 |
| 20260904184523 | 33 | 248 | 6.4 | 16.1 | 0.00 | 0.00 | 0.00 | 71 | 1011.0 |
| 20260904183103 | 33 | 229 | 4.8 | 16.1 | 0.00 | 0.00 | 0.00 | 70 | 1011.0 |
| 20260904181546 | 33 | 219 | 4.8 | 12.9 | 0.00 | 0.00 | 0.00 | 71 | 1011.1 |
| 20260904180141 | 32 | 245 | 6.4 | 11.3 | 0.00 | 0.00 | 0.00 | 72 | 1011.3 |